sensor_id;sensor_type;location;lat;lon;timestamp;P1;durP1;ratioP1;P2;durP2;ratioP2
30147;SDS011;16960;49.404;8.248;2023-07-29T00:00:46;1.60;;;1.50;;
30147;SDS011;16960;49.404;8.248;2023-07-29T00:03:13;2.23;;;1.60;;
30147;SDS011;16960;49.404;8.248;2023-07-29T00:05:40;1.90;;;1.20;;
30147;SDS011;16960;49.404;8.248;2023-07-29T00:08:07;1.50;;;1.30;;
30147;SDS011;16960;49.404;8.248;2023-07-29T00:10:35;1.50;;;1.20;;
30147;SDS011;16960;49.404;8.248;2023-07-29T00:13:04;1.80;;;1.37;;
30147;SDS011;16960;49.404;8.248;2023-07-29T00:15:32;1.90;;;1.60;;
30147;SDS011;16960;49.404;8.248;2023-07-29T00:17:59;2.00;;;1.80;;
30147;SDS011;16960;49.404;8.248;2023-07-29T00:20:26;1.50;;;1.40;;
30147;SDS011;16960;49.404;8.248;2023-07-29T00:22:53;1.40;;;1.30;;
30147;SDS011;16960;49.404;8.248;2023-07-29T00:25:20;1.97;;;1.77;;
30147;SDS011;16960;49.404;8.248;2023-07-29T00:27:47;1.93;;;1.53;;
30147;SDS011;16960;49.404;8.248;2023-07-29T00:30:15;1.97;;;1.73;;
30147;SDS011;16960;49.404;8.248;2023-07-29T00:32:42;1.53;;;1.20;;
30147;SDS011;16960;49.404;8.248;2023-07-29T00:35:09;2.07;;;1.43;;
30147;SDS011;16960;49.404;8.248;2023-07-29T00:37:36;2.47;;;1.67;;
30147;SDS011;16960;49.404;8.248;2023-07-29T00:40:04;1.80;;;1.50;;
30147;SDS011;16960;49.404;8.248;2023-07-29T00:42:39;2.03;;;1.73;;
30147;SDS011;16960;49.404;8.248;2023-07-29T00:45:08;1.53;;;1.43;;
30147;SDS011;16960;49.404;8.248;2023-07-29T00:47:36;1.30;;;1.20;;
30147;SDS011;16960;49.404;8.248;2023-07-29T00:50:04;1.40;;;1.30;;
30147;SDS011;16960;49.404;8.248;2023-07-29T00:52:32;2.23;;;1.27;;
30147;SDS011;16960;49.404;8.248;2023-07-29T00:54:59;2.33;;;1.50;;
30147;SDS011;16960;49.404;8.248;2023-07-29T00:57:26;1.80;;;1.70;;
30147;SDS011;16960;49.404;8.248;2023-07-29T00:59:55;3.93;;;1.63;;
30147;SDS011;16960;49.404;8.248;2023-07-29T01:02:22;2.23;;;1.30;;
30147;SDS011;16960;49.404;8.248;2023-07-29T01:04:52;2.30;;;1.77;;
30147;SDS011;16960;49.404;8.248;2023-07-29T01:07:21;2.17;;;1.33;;
30147;SDS011;16960;49.404;8.248;2023-07-29T01:10:07;2.13;;;1.50;;
30147;SDS011;16960;49.404;8.248;2023-07-29T01:12:48;1.70;;;1.60;;
30147;SDS011;16960;49.404;8.248;2023-07-29T01:15:21;1.60;;;1.47;;
30147;SDS011;16960;49.404;8.248;2023-07-29T01:17:52;1.23;;;1.13;;
30147;SDS011;16960;49.404;8.248;2023-07-29T01:20:23;1.50;;;1.40;;
30147;SDS011;16960;49.404;8.248;2023-07-29T01:22:51;1.97;;;1.70;;
30147;SDS011;16960;49.404;8.248;2023-07-29T01:25:19;2.30;;;1.63;;
30147;SDS011;16960;49.404;8.248;2023-07-29T01:27:48;1.50;;;1.40;;
30147;SDS011;16960;49.404;8.248;2023-07-29T01:30:16;2.20;;;1.43;;
30147;SDS011;16960;49.404;8.248;2023-07-29T01:32:45;1.40;;;1.20;;
30147;SDS011;16960;49.404;8.248;2023-07-29T01:35:21;4.87;;;1.30;;
30147;SDS011;16960;49.404;8.248;2023-07-29T01:37:52;1.73;;;1.30;;
30147;SDS011;16960;49.404;8.248;2023-07-29T01:40:27;1.67;;;1.33;;
30147;SDS011;16960;49.404;8.248;2023-07-29T01:42:54;2.93;;;1.73;;
30147;SDS011;16960;49.404;8.248;2023-07-29T01:45:22;1.50;;;1.40;;
30147;SDS011;16960;49.404;8.248;2023-07-29T01:47:50;1.90;;;1.47;;
30147;SDS011;16960;49.404;8.248;2023-07-29T01:50:17;2.07;;;1.80;;
30147;SDS011;16960;49.404;8.248;2023-07-29T01:52:44;1.50;;;1.37;;
30147;SDS011;16960;49.404;8.248;2023-07-29T01:55:11;1.30;;;1.20;;
30147;SDS011;16960;49.404;8.248;2023-07-29T01:57:39;2.30;;;1.27;;
30147;SDS011;16960;49.404;8.248;2023-07-29T02:00:06;1.60;;;1.50;;
30147;SDS011;16960;49.404;8.248;2023-07-29T02:02:34;2.00;;;1.60;;
30147;SDS011;16960;49.404;8.248;2023-07-29T02:05:01;2.50;;;1.77;;
30147;SDS011;16960;49.404;8.248;2023-07-29T02:07:28;4.27;;;1.63;;
30147;SDS011;16960;49.404;8.248;2023-07-29T02:09:55;1.67;;;1.57;;
30147;SDS011;16960;49.404;8.248;2023-07-29T02:12:22;4.33;;;1.67;;
30147;SDS011;16960;49.404;8.248;2023-07-29T02:14:50;1.70;;;1.53;;
30147;SDS011;16960;49.404;8.248;2023-07-29T02:17:17;6.30;;;1.90;;
30147;SDS011;16960;49.404;8.248;2023-07-29T02:19:44;2.20;;;1.80;;
30147;SDS011;16960;49.404;8.248;2023-07-29T02:22:12;1.70;;;1.60;;
30147;SDS011;16960;49.404;8.248;2023-07-29T02:24:40;1.43;;;1.33;;
30147;SDS011;16960;49.404;8.248;2023-07-29T02:27:07;2.30;;;1.43;;
30147;SDS011;16960;49.404;8.248;2023-07-29T02:29:34;1.40;;;1.30;;
30147;SDS011;16960;49.404;8.248;2023-07-29T02:32:03;2.73;;;1.43;;
30147;SDS011;16960;49.404;8.248;2023-07-29T02:34:30;1.67;;;1.57;;
30147;SDS011;16960;49.404;8.248;2023-07-29T02:36:57;2.00;;;1.60;;
30147;SDS011;16960;49.404;8.248;2023-07-29T02:39:24;1.10;;;1.00;;
30147;SDS011;16960;49.404;8.248;2023-07-29T02:41:51;2.77;;;1.53;;
30147;SDS011;16960;49.404;8.248;2023-07-29T02:44:18;1.80;;;1.50;;
30147;SDS011;16960;49.404;8.248;2023-07-29T02:46:45;1.60;;;1.20;;
30147;SDS011;16960;49.404;8.248;2023-07-29T02:49:13;1.30;;;1.20;;
30147;SDS011;16960;49.404;8.248;2023-07-29T02:51:40;3.17;;;1.53;;
30147;SDS011;16960;49.404;8.248;2023-07-29T02:54:07;1.40;;;1.30;;
30147;SDS011;16960;49.404;8.248;2023-07-29T02:56:34;1.30;;;1.20;;
30147;SDS011;16960;49.404;8.248;2023-07-29T02:59:01;1.57;;;1.47;;
30147;SDS011;16960;49.404;8.248;2023-07-29T03:01:28;2.07;;;1.97;;
30147;SDS011;16960;49.404;8.248;2023-07-29T03:03:55;1.93;;;1.73;;
30147;SDS011;16960;49.404;8.248;2023-07-29T03:06:23;2.70;;;2.03;;
30147;SDS011;16960;49.404;8.248;2023-07-29T03:08:50;1.50;;;1.40;;
30147;SDS011;16960;49.404;8.248;2023-07-29T03:11:17;2.00;;;1.77;;
30147;SDS011;16960;49.404;8.248;2023-07-29T03:13:44;1.43;;;1.33;;
30147;SDS011;16960;49.404;8.248;2023-07-29T03:16:11;1.90;;;1.60;;
30147;SDS011;16960;49.404;8.248;2023-07-29T03:18:39;5.33;;;1.50;;
30147;SDS011;16960;49.404;8.248;2023-07-29T03:21:07;2.50;;;1.63;;
30147;SDS011;16960;49.404;8.248;2023-07-29T03:23:36;1.53;;;1.43;;
30147;SDS011;16960;49.404;8.248;2023-07-29T03:26:04;1.87;;;1.40;;
30147;SDS011;16960;49.404;8.248;2023-07-29T03:28:35;1.53;;;1.43;;
30147;SDS011;16960;49.404;8.248;2023-07-29T03:31:04;2.40;;;1.70;;
30147;SDS011;16960;49.404;8.248;2023-07-29T03:33:31;1.53;;;1.43;;
30147;SDS011;16960;49.404;8.248;2023-07-29T03:35:58;1.83;;;1.27;;
30147;SDS011;16960;49.404;8.248;2023-07-29T03:38:25;1.70;;;1.60;;
30147;SDS011;16960;49.404;8.248;2023-07-29T03:40:54;1.97;;;1.60;;
30147;SDS011;16960;49.404;8.248;2023-07-29T03:43:21;1.83;;;1.73;;
30147;SDS011;16960;49.404;8.248;2023-07-29T03:45:48;2.33;;;1.70;;
30147;SDS011;16960;49.404;8.248;2023-07-29T03:48:15;1.70;;;1.60;;
30147;SDS011;16960;49.404;8.248;2023-07-29T03:50:41;1.70;;;1.43;;
30147;SDS011;16960;49.404;8.248;2023-07-29T03:53:08;1.13;;;1.03;;
30147;SDS011;16960;49.404;8.248;2023-07-29T03:55:36;1.43;;;1.30;;
30147;SDS011;16960;49.404;8.248;2023-07-29T03:58:04;1.93;;;1.40;;
30147;SDS011;16960;49.404;8.248;2023-07-29T04:00:31;1.50;;;1.40;;
30147;SDS011;16960;49.404;8.248;2023-07-29T04:02:58;1.63;;;1.53;;
30147;SDS011;16960;49.404;8.248;2023-07-29T04:05:25;2.27;;;1.50;;
30147;SDS011;16960;49.404;8.248;2023-07-29T04:07:52;2.10;;;1.67;;
30147;SDS011;16960;49.404;8.248;2023-07-29T04:10:20;2.03;;;1.53;;
30147;SDS011;16960;49.404;8.248;2023-07-29T04:12:47;2.70;;;1.80;;
30147;SDS011;16960;49.404;8.248;2023-07-29T04:15:15;1.60;;;1.50;;
30147;SDS011;16960;49.404;8.248;2023-07-29T04:17:42;2.77;;;1.57;;
30147;SDS011;16960;49.404;8.248;2023-07-29T04:20:10;1.33;;;1.23;;
30147;SDS011;16960;49.404;8.248;2023-07-29T04:22:37;2.77;;;1.70;;
30147;SDS011;16960;49.404;8.248;2023-07-29T04:25:04;3.17;;;1.73;;
30147;SDS011;16960;49.404;8.248;2023-07-29T04:27:32;1.50;;;1.40;;
30147;SDS011;16960;49.404;8.248;2023-07-29T04:29:59;2.53;;;1.70;;
30147;SDS011;16960;49.404;8.248;2023-07-29T04:32:28;1.90;;;1.47;;
30147;SDS011;16960;49.404;8.248;2023-07-29T04:34:55;1.90;;;1.60;;
30147;SDS011;16960;49.404;8.248;2023-07-29T04:37:21;2.77;;;1.93;;
30147;SDS011;16960;49.404;8.248;2023-07-29T04:39:48;1.90;;;1.37;;
30147;SDS011;16960;49.404;8.248;2023-07-29T04:42:15;2.73;;;1.70;;
30147;SDS011;16960;49.404;8.248;2023-07-29T04:44:42;1.30;;;1.20;;
30147;SDS011;16960;49.404;8.248;2023-07-29T04:47:09;3.23;;;2.70;;
30147;SDS011;16960;49.404;8.248;2023-07-29T04:49:37;2.57;;;1.60;;
30147;SDS011;16960;49.404;8.248;2023-07-29T04:52:05;2.43;;;1.80;;
30147;SDS011;16960;49.404;8.248;2023-07-29T04:54:32;2.60;;;1.83;;
30147;SDS011;16960;49.404;8.248;2023-07-29T04:56:59;1.80;;;1.60;;
30147;SDS011;16960;49.404;8.248;2023-07-29T04:59:26;3.23;;;2.03;;
30147;SDS011;16960;49.404;8.248;2023-07-29T05:01:53;3.17;;;1.80;;
30147;SDS011;16960;49.404;8.248;2023-07-29T05:04:20;2.00;;;1.70;;
30147;SDS011;16960;49.404;8.248;2023-07-29T05:06:49;2.23;;;1.97;;
30147;SDS011;16960;49.404;8.248;2023-07-29T05:09:24;2.87;;;1.80;;
30147;SDS011;16960;49.404;8.248;2023-07-29T05:11:51;3.77;;;1.50;;
30147;SDS011;16960;49.404;8.248;2023-07-29T05:14:18;1.50;;;1.40;;
30147;SDS011;16960;49.404;8.248;2023-07-29T05:16:45;1.90;;;1.80;;
30147;SDS011;16960;49.404;8.248;2023-07-29T05:19:12;2.00;;;1.80;;
30147;SDS011;16960;49.404;8.248;2023-07-29T05:21:39;2.13;;;1.93;;
30147;SDS011;16960;49.404;8.248;2023-07-29T05:24:08;2.33;;;1.60;;
30147;SDS011;16960;49.404;8.248;2023-07-29T05:26:35;1.50;;;1.40;;
30147;SDS011;16960;49.404;8.248;2023-07-29T05:29:02;1.83;;;1.70;;
30147;SDS011;16960;49.404;8.248;2023-07-29T05:31:29;1.70;;;1.60;;
30147;SDS011;16960;49.404;8.248;2023-07-29T05:33:56;1.63;;;1.53;;
30147;SDS011;16960;49.404;8.248;2023-07-29T05:36:22;2.60;;;1.70;;
30147;SDS011;16960;49.404;8.248;2023-07-29T05:38:49;1.53;;;1.43;;
30147;SDS011;16960;49.404;8.248;2023-07-29T05:41:19;2.80;;;1.60;;
30147;SDS011;16960;49.404;8.248;2023-07-29T05:43:46;1.90;;;1.73;;
30147;SDS011;16960;49.404;8.248;2023-07-29T05:46:13;1.50;;;1.27;;
30147;SDS011;16960;49.404;8.248;2023-07-29T05:48:40;1.47;;;1.37;;
30147;SDS011;16960;49.404;8.248;2023-07-29T05:51:07;1.50;;;1.30;;
30147;SDS011;16960;49.404;8.248;2023-07-29T05:53:34;1.50;;;1.20;;
30147;SDS011;16960;49.404;8.248;2023-07-29T05:56:01;4.60;;;1.70;;
30147;SDS011;16960;49.404;8.248;2023-07-29T05:58:29;1.80;;;1.63;;
30147;SDS011;16960;49.404;8.248;2023-07-29T06:00:57;2.40;;;1.60;;
30147;SDS011;16960;49.404;8.248;2023-07-29T06:03:24;1.70;;;1.20;;
30147;SDS011;16960;49.404;8.248;2023-07-29T06:05:51;1.60;;;1.50;;
30147;SDS011;16960;49.404;8.248;2023-07-29T06:08:18;2.40;;;1.53;;
30147;SDS011;16960;49.404;8.248;2023-07-29T06:10:44;1.67;;;1.40;;
30147;SDS011;16960;49.404;8.248;2023-07-29T06:13:11;1.60;;;1.30;;
30147;SDS011;16960;49.404;8.248;2023-07-29T06:15:40;1.93;;;1.20;;
30147;SDS011;16960;49.404;8.248;2023-07-29T06:18:06;3.80;;;1.77;;
30147;SDS011;16960;49.404;8.248;2023-07-29T06:20:33;2.40;;;1.10;;
30147;SDS011;16960;49.404;8.248;2023-07-29T06:23:00;1.63;;;1.37;;
30147;SDS011;16960;49.404;8.248;2023-07-29T06:25:28;1.93;;;1.43;;
30147;SDS011;16960;49.404;8.248;2023-07-29T06:27:55;2.17;;;1.57;;
30147;SDS011;16960;49.404;8.248;2023-07-29T06:30:23;1.30;;;1.20;;
30147;SDS011;16960;49.404;8.248;2023-07-29T06:32:51;1.40;;;1.30;;
30147;SDS011;16960;49.404;8.248;2023-07-29T06:35:19;1.70;;;1.60;;
30147;SDS011;16960;49.404;8.248;2023-07-29T06:37:46;2.83;;;1.23;;
30147;SDS011;16960;49.404;8.248;2023-07-29T06:40:13;1.43;;;1.07;;
30147;SDS011;16960;49.404;8.248;2023-07-29T06:42:40;1.33;;;1.13;;
30147;SDS011;16960;49.404;8.248;2023-07-29T06:45:07;1.30;;;1.03;;
30147;SDS011;16960;49.404;8.248;2023-07-29T06:47:35;2.37;;;1.70;;
30147;SDS011;16960;49.404;8.248;2023-07-29T06:50:03;1.80;;;1.70;;
30147;SDS011;16960;49.404;8.248;2023-07-29T06:52:31;1.63;;;1.43;;
30147;SDS011;16960;49.404;8.248;2023-07-29T06:54:58;2.07;;;1.83;;
30147;SDS011;16960;49.404;8.248;2023-07-29T06:57:25;4.37;;;1.80;;
30147;SDS011;16960;49.404;8.248;2023-07-29T06:59:51;6.93;;;2.90;;
30147;SDS011;16960;49.404;8.248;2023-07-29T07:02:18;11.03;;;4.87;;
30147;SDS011;16960;49.404;8.248;2023-07-29T07:04:45;13.93;;;4.23;;
30147;SDS011;16960;49.404;8.248;2023-07-29T07:07:14;10.83;;;4.20;;
30147;SDS011;16960;49.404;8.248;2023-07-29T07:09:41;6.90;;;3.23;;
30147;SDS011;16960;49.404;8.248;2023-07-29T07:12:08;5.40;;;3.13;;
30147;SDS011;16960;49.404;8.248;2023-07-29T07:14:36;4.20;;;2.70;;
30147;SDS011;16960;49.404;8.248;2023-07-29T07:17:03;4.50;;;2.30;;
30147;SDS011;16960;49.404;8.248;2023-07-29T07:19:31;4.33;;;2.17;;
30147;SDS011;16960;49.404;8.248;2023-07-29T07:21:57;4.77;;;2.00;;
30147;SDS011;16960;49.404;8.248;2023-07-29T07:24:26;4.93;;;2.30;;
30147;SDS011;16960;49.404;8.248;2023-07-29T07:26:53;5.40;;;1.80;;
30147;SDS011;16960;49.404;8.248;2023-07-29T07:29:19;2.73;;;1.63;;
30147;SDS011;16960;49.404;8.248;2023-07-29T07:31:49;3.17;;;1.70;;
30147;SDS011;16960;49.404;8.248;2023-07-29T07:34:17;3.00;;;1.90;;
30147;SDS011;16960;49.404;8.248;2023-07-29T07:36:44;2.07;;;1.87;;
30147;SDS011;16960;49.404;8.248;2023-07-29T07:39:11;2.57;;;1.97;;
30147;SDS011;16960;49.404;8.248;2023-07-29T07:41:39;3.37;;;1.87;;
30147;SDS011;16960;49.404;8.248;2023-07-29T07:44:07;7.53;;;2.37;;
30147;SDS011;16960;49.404;8.248;2023-07-29T07:46:36;3.83;;;1.60;;
30147;SDS011;16960;49.404;8.248;2023-07-29T07:49:03;2.50;;;1.90;;
30147;SDS011;16960;49.404;8.248;2023-07-29T07:51:29;3.00;;;1.50;;
30147;SDS011;16960;49.404;8.248;2023-07-29T07:53:56;1.53;;;1.37;;
30147;SDS011;16960;49.404;8.248;2023-07-29T07:56:24;2.30;;;1.93;;
30147;SDS011;16960;49.404;8.248;2023-07-29T07:58:52;2.60;;;1.93;;
30147;SDS011;16960;49.404;8.248;2023-07-29T08:01:19;1.70;;;1.43;;
30147;SDS011;16960;49.404;8.248;2023-07-29T08:03:46;2.03;;;1.33;;
30147;SDS011;16960;49.404;8.248;2023-07-29T08:06:12;3.50;;;1.70;;
30147;SDS011;16960;49.404;8.248;2023-07-29T08:08:39;1.67;;;1.57;;
30147;SDS011;16960;49.404;8.248;2023-07-29T08:11:06;1.47;;;1.37;;
30147;SDS011;16960;49.404;8.248;2023-07-29T08:13:33;1.93;;;1.60;;
30147;SDS011;16960;49.404;8.248;2023-07-29T08:16:02;3.50;;;1.60;;
30147;SDS011;16960;49.404;8.248;2023-07-29T08:18:29;1.70;;;1.40;;
30147;SDS011;16960;49.404;8.248;2023-07-29T08:20:56;1.70;;;1.60;;
30147;SDS011;16960;49.404;8.248;2023-07-29T08:23:24;2.70;;;2.10;;
30147;SDS011;16960;49.404;8.248;2023-07-29T08:25:55;1.60;;;1.30;;
30147;SDS011;16960;49.404;8.248;2023-07-29T08:28:26;2.57;;;1.67;;
30147;SDS011;16960;49.404;8.248;2023-07-29T08:30:54;2.43;;;1.53;;
30147;SDS011;16960;49.404;8.248;2023-07-29T08:33:22;1.50;;;1.40;;
30147;SDS011;16960;49.404;8.248;2023-07-29T08:35:49;2.60;;;1.60;;
30147;SDS011;16960;49.404;8.248;2023-07-29T08:38:16;2.40;;;1.50;;
30147;SDS011;16960;49.404;8.248;2023-07-29T08:40:45;1.97;;;1.70;;
30147;SDS011;16960;49.404;8.248;2023-07-29T08:43:16;2.10;;;1.20;;
30147;SDS011;16960;49.404;8.248;2023-07-29T08:45:46;1.57;;;1.47;;
30147;SDS011;16960;49.404;8.248;2023-07-29T08:48:13;1.83;;;1.43;;
30147;SDS011;16960;49.404;8.248;2023-07-29T08:50:45;5.20;;;1.83;;
30147;SDS011;16960;49.404;8.248;2023-07-29T08:53:13;3.53;;;1.40;;
30147;SDS011;16960;49.404;8.248;2023-07-29T08:55:40;2.70;;;1.60;;
30147;SDS011;16960;49.404;8.248;2023-07-29T08:58:07;4.50;;;1.30;;
30147;SDS011;16960;49.404;8.248;2023-07-29T09:00:35;3.13;;;1.80;;
30147;SDS011;16960;49.404;8.248;2023-07-29T09:03:02;3.80;;;1.23;;
30147;SDS011;16960;49.404;8.248;2023-07-29T09:05:32;1.67;;;1.30;;
30147;SDS011;16960;49.404;8.248;2023-07-29T09:08:01;1.80;;;1.70;;
30147;SDS011;16960;49.404;8.248;2023-07-29T09:10:35;1.83;;;1.57;;
30147;SDS011;16960;49.404;8.248;2023-07-29T09:13:02;1.87;;;1.20;;
30147;SDS011;16960;49.404;8.248;2023-07-29T09:15:31;2.30;;;1.40;;
30147;SDS011;16960;49.404;8.248;2023-07-29T09:18:07;1.80;;;1.33;;
30147;SDS011;16960;49.404;8.248;2023-07-29T09:20:35;2.70;;;1.80;;
30147;SDS011;16960;49.404;8.248;2023-07-29T09:23:06;2.30;;;1.53;;
30147;SDS011;16960;49.404;8.248;2023-07-29T09:25:34;3.60;;;1.57;;
30147;SDS011;16960;49.404;8.248;2023-07-29T09:28:02;2.87;;;1.10;;
30147;SDS011;16960;49.404;8.248;2023-07-29T09:30:34;1.40;;;1.30;;
30147;SDS011;16960;49.404;8.248;2023-07-29T09:33:01;2.20;;;1.87;;
30147;SDS011;16960;49.404;8.248;2023-07-29T09:35:30;3.00;;;1.30;;
30147;SDS011;16960;49.404;8.248;2023-07-29T09:37:58;1.73;;;1.47;;
30147;SDS011;16960;49.404;8.248;2023-07-29T09:40:27;4.40;;;1.60;;
30147;SDS011;16960;49.404;8.248;2023-07-29T09:42:54;1.53;;;1.20;;
30147;SDS011;16960;49.404;8.248;2023-07-29T09:45:22;1.33;;;1.20;;
30147;SDS011;16960;49.404;8.248;2023-07-29T09:47:50;3.03;;;1.80;;
30147;SDS011;16960;49.404;8.248;2023-07-29T09:50:17;1.77;;;1.67;;
30147;SDS011;16960;49.404;8.248;2023-07-29T09:52:44;1.50;;;1.27;;
30147;SDS011;16960;49.404;8.248;2023-07-29T09:55:13;1.30;;;1.20;;
30147;SDS011;16960;49.404;8.248;2023-07-29T09:57:45;1.70;;;1.37;;
30147;SDS011;16960;49.404;8.248;2023-07-29T10:00:13;1.93;;;1.70;;
30147;SDS011;16960;49.404;8.248;2023-07-29T10:02:40;1.60;;;1.50;;
30147;SDS011;16960;49.404;8.248;2023-07-29T10:05:08;1.37;;;1.27;;
30147;SDS011;16960;49.404;8.248;2023-07-29T10:07:36;1.37;;;1.27;;
30147;SDS011;16960;49.404;8.248;2023-07-29T10:10:04;2.27;;;1.30;;
30147;SDS011;16960;49.404;8.248;2023-07-29T10:12:32;1.90;;;1.70;;
30147;SDS011;16960;49.404;8.248;2023-07-29T10:15:02;2.70;;;1.97;;
30147;SDS011;16960;49.404;8.248;2023-07-29T10:17:30;1.47;;;1.37;;
30147;SDS011;16960;49.404;8.248;2023-07-29T10:19:59;2.40;;;1.80;;
30147;SDS011;16960;49.404;8.248;2023-07-29T10:22:27;1.60;;;1.50;;
30147;SDS011;16960;49.404;8.248;2023-07-29T10:24:59;1.50;;;1.40;;
30147;SDS011;16960;49.404;8.248;2023-07-29T10:27:31;2.23;;;1.40;;
30147;SDS011;16960;49.404;8.248;2023-07-29T10:30:04;2.10;;;1.60;;
30147;SDS011;16960;49.404;8.248;2023-07-29T10:32:32;1.93;;;1.37;;
30147;SDS011;16960;49.404;8.248;2023-07-29T10:35:00;1.90;;;1.80;;
30147;SDS011;16960;49.404;8.248;2023-07-29T10:37:27;2.23;;;1.97;;
30147;SDS011;16960;49.404;8.248;2023-07-29T10:39:54;1.73;;;1.63;;
30147;SDS011;16960;49.404;8.248;2023-07-29T10:42:21;1.40;;;1.30;;
30147;SDS011;16960;49.404;8.248;2023-07-29T10:44:49;3.50;;;1.70;;
30147;SDS011;16960;49.404;8.248;2023-07-29T10:47:20;1.40;;;1.30;;
30147;SDS011;16960;49.404;8.248;2023-07-29T10:49:49;1.80;;;1.70;;
30147;SDS011;16960;49.404;8.248;2023-07-29T10:52:27;1.63;;;1.40;;
30147;SDS011;16960;49.404;8.248;2023-07-29T10:54:55;2.17;;;1.70;;
30147;SDS011;16960;49.404;8.248;2023-07-29T10:57:30;2.57;;;1.70;;
30147;SDS011;16960;49.404;8.248;2023-07-29T10:59:58;1.80;;;1.40;;
30147;SDS011;16960;49.404;8.248;2023-07-29T11:02:30;1.90;;;1.67;;
30147;SDS011;16960;49.404;8.248;2023-07-29T11:04:58;1.33;;;1.23;;
30147;SDS011;16960;49.404;8.248;2023-07-29T11:07:25;15.13;;;2.00;;
30147;SDS011;16960;49.404;8.248;2023-07-29T11:09:57;3.07;;;1.70;;
30147;SDS011;16960;49.404;8.248;2023-07-29T11:12:35;2.70;;;1.77;;
30147;SDS011;16960;49.404;8.248;2023-07-29T11:15:14;3.67;;;1.30;;
30147;SDS011;16960;49.404;8.248;2023-07-29T11:17:45;1.60;;;1.50;;
30147;SDS011;16960;49.404;8.248;2023-07-29T11:20:14;1.90;;;1.80;;
30147;SDS011;16960;49.404;8.248;2023-07-29T11:22:41;7.00;;;1.70;;
30147;SDS011;16960;49.404;8.248;2023-07-29T11:25:09;2.27;;;1.40;;
30147;SDS011;16960;49.404;8.248;2023-07-29T11:27:37;4.00;;;1.90;;
30147;SDS011;16960;49.404;8.248;2023-07-29T11:30:06;2.00;;;1.63;;
30147;SDS011;16960;49.404;8.248;2023-07-29T11:32:34;2.50;;;1.63;;
30147;SDS011;16960;49.404;8.248;2023-07-29T11:35:04;2.60;;;1.77;;
30147;SDS011;16960;49.404;8.248;2023-07-29T11:37:32;2.27;;;1.67;;
30147;SDS011;16960;49.404;8.248;2023-07-29T11:40:00;1.70;;;1.60;;
30147;SDS011;16960;49.404;8.248;2023-07-29T11:42:27;2.73;;;1.80;;
30147;SDS011;16960;49.404;8.248;2023-07-29T11:44:56;1.40;;;1.30;;
30147;SDS011;16960;49.404;8.248;2023-07-29T11:47:24;1.73;;;1.57;;
30147;SDS011;16960;49.404;8.248;2023-07-29T11:49:51;2.30;;;1.67;;
30147;SDS011;16960;49.404;8.248;2023-07-29T11:52:19;1.20;;;1.10;;
30147;SDS011;16960;49.404;8.248;2023-07-29T11:54:47;2.50;;;1.47;;
30147;SDS011;16960;49.404;8.248;2023-07-29T11:57:16;2.10;;;1.83;;
30147;SDS011;16960;49.404;8.248;2023-07-29T11:59:44;1.83;;;1.63;;
30147;SDS011;16960;49.404;8.248;2023-07-29T12:02:13;2.20;;;1.53;;
30147;SDS011;16960;49.404;8.248;2023-07-29T12:04:43;1.30;;;1.10;;
30147;SDS011;16960;49.404;8.248;2023-07-29T12:07:11;1.60;;;1.50;;
30147;SDS011;16960;49.404;8.248;2023-07-29T12:09:41;1.73;;;1.53;;
30147;SDS011;16960;49.404;8.248;2023-07-29T12:12:08;1.53;;;1.43;;
30147;SDS011;16960;49.404;8.248;2023-07-29T12:14:35;1.70;;;1.40;;
30147;SDS011;16960;49.404;8.248;2023-07-29T12:17:03;1.57;;;1.23;;
30147;SDS011;16960;49.404;8.248;2023-07-29T12:19:32;2.17;;;1.50;;
30147;SDS011;16960;49.404;8.248;2023-07-29T12:22:00;2.13;;;1.77;;
30147;SDS011;16960;49.404;8.248;2023-07-29T12:24:29;1.60;;;1.40;;
30147;SDS011;16960;49.404;8.248;2023-07-29T12:26:57;1.80;;;1.57;;
30147;SDS011;16960;49.404;8.248;2023-07-29T12:29:25;2.10;;;1.57;;
30147;SDS011;16960;49.404;8.248;2023-07-29T12:31:56;1.83;;;1.10;;
30147;SDS011;16960;49.404;8.248;2023-07-29T12:34:25;1.50;;;1.30;;
30147;SDS011;16960;49.404;8.248;2023-07-29T12:36:53;1.60;;;1.43;;
30147;SDS011;16960;49.404;8.248;2023-07-29T12:39:21;1.50;;;1.30;;
30147;SDS011;16960;49.404;8.248;2023-07-29T12:41:50;1.47;;;1.23;;
30147;SDS011;16960;49.404;8.248;2023-07-29T12:44:19;1.97;;;1.30;;
30147;SDS011;16960;49.404;8.248;2023-07-29T12:46:46;1.67;;;1.50;;
30147;SDS011;16960;49.404;8.248;2023-07-29T12:49:13;1.67;;;1.20;;
30147;SDS011;16960;49.404;8.248;2023-07-29T12:51:40;1.30;;;1.13;;
30147;SDS011;16960;49.404;8.248;2023-07-29T12:54:08;2.00;;;1.47;;
30147;SDS011;16960;49.404;8.248;2023-07-29T12:56:35;1.40;;;1.30;;
30147;SDS011;16960;49.404;8.248;2023-07-29T12:59:02;2.10;;;1.40;;
30147;SDS011;16960;49.404;8.248;2023-07-29T13:01:30;2.70;;;1.60;;
30147;SDS011;16960;49.404;8.248;2023-07-29T13:03:57;1.73;;;1.27;;
30147;SDS011;16960;49.404;8.248;2023-07-29T13:06:24;2.40;;;1.27;;
30147;SDS011;16960;49.404;8.248;2023-07-29T13:08:51;1.23;;;1.10;;
30147;SDS011;16960;49.404;8.248;2023-07-29T13:11:18;1.17;;;1.07;;
30147;SDS011;16960;49.404;8.248;2023-07-29T13:13:45;2.00;;;1.40;;
30147;SDS011;16960;49.404;8.248;2023-07-29T13:16:12;1.50;;;1.30;;
30147;SDS011;16960;49.404;8.248;2023-07-29T13:18:40;1.83;;;1.43;;
30147;SDS011;16960;49.404;8.248;2023-07-29T13:21:09;1.37;;;1.27;;
30147;SDS011;16960;49.404;8.248;2023-07-29T13:23:36;2.07;;;1.40;;
30147;SDS011;16960;49.404;8.248;2023-07-29T13:26:03;1.30;;;1.20;;
30147;SDS011;16960;49.404;8.248;2023-07-29T13:28:29;1.60;;;1.43;;
30147;SDS011;16960;49.404;8.248;2023-07-29T13:30:56;1.23;;;1.10;;
30147;SDS011;16960;49.404;8.248;2023-07-29T13:33:23;2.03;;;1.40;;
30147;SDS011;16960;49.404;8.248;2023-07-29T13:35:52;1.23;;;1.13;;
30147;SDS011;16960;49.404;8.248;2023-07-29T13:38:18;2.07;;;1.60;;
30147;SDS011;16960;49.404;8.248;2023-07-29T13:40:46;1.83;;;1.10;;
30147;SDS011;16960;49.404;8.248;2023-07-29T13:43:16;1.57;;;1.47;;
30147;SDS011;16960;49.404;8.248;2023-07-29T13:45:43;3.83;;;1.30;;
30147;SDS011;16960;49.404;8.248;2023-07-29T13:48:09;1.60;;;1.50;;
30147;SDS011;16960;49.404;8.248;2023-07-29T13:50:36;1.40;;;1.30;;
30147;SDS011;16960;49.404;8.248;2023-07-29T13:53:05;1.30;;;1.20;;
30147;SDS011;16960;49.404;8.248;2023-07-29T13:55:31;1.60;;;1.40;;
30147;SDS011;16960;49.404;8.248;2023-07-29T13:57:58;1.67;;;1.40;;
30147;SDS011;16960;49.404;8.248;2023-07-29T14:00:25;2.30;;;1.47;;
30147;SDS011;16960;49.404;8.248;2023-07-29T14:02:52;1.73;;;1.20;;
30147;SDS011;16960;49.404;8.248;2023-07-29T14:05:19;1.63;;;1.53;;
30147;SDS011;16960;49.404;8.248;2023-07-29T14:07:46;1.60;;;1.50;;
30147;SDS011;16960;49.404;8.248;2023-07-29T14:10:15;1.30;;;1.20;;
30147;SDS011;16960;49.404;8.248;2023-07-29T14:12:42;2.07;;;1.60;;
30147;SDS011;16960;49.404;8.248;2023-07-29T14:15:09;1.40;;;1.30;;
30147;SDS011;16960;49.404;8.248;2023-07-29T14:17:36;1.60;;;1.33;;
30147;SDS011;16960;49.404;8.248;2023-07-29T14:20:03;1.63;;;1.53;;
30147;SDS011;16960;49.404;8.248;2023-07-29T14:22:30;1.37;;;1.27;;
30147;SDS011;16960;49.404;8.248;2023-07-29T14:24:57;1.40;;;1.30;;
30147;SDS011;16960;49.404;8.248;2023-07-29T14:27:26;2.13;;;1.60;;
30147;SDS011;16960;49.404;8.248;2023-07-29T14:29:53;1.10;;;1.00;;
30147;SDS011;16960;49.404;8.248;2023-07-29T14:32:19;1.43;;;1.20;;
30147;SDS011;16960;49.404;8.248;2023-07-29T14:34:46;2.03;;;1.53;;
30147;SDS011;16960;49.404;8.248;2023-07-29T14:37:14;1.50;;;1.40;;
30147;SDS011;16960;49.404;8.248;2023-07-29T14:39:40;1.53;;;1.43;;
30147;SDS011;16960;49.404;8.248;2023-07-29T14:42:07;1.50;;;1.40;;
30147;SDS011;16960;49.404;8.248;2023-07-29T14:44:36;1.73;;;1.10;;
30147;SDS011;16960;49.404;8.248;2023-07-29T14:47:03;1.40;;;1.30;;
30147;SDS011;16960;49.404;8.248;2023-07-29T14:49:30;1.53;;;1.43;;
30147;SDS011;16960;49.404;8.248;2023-07-29T14:51:57;1.80;;;1.70;;